Huntsville, Indiana
Current Conditions -  °F | °C
As of 12:55 PM on Friday 31 Oct 2014 (Local Time) from KMQJ Reporting Station
Broken Clouds Broken Clouds  
Wind Chill: 33°   Ceiling: 1900
Heat Index: 41°   Visibility: 10mi
Dew Point: 34°   Wind: 16mph
Humidity: 76%   Direction: 320°NW
Pressure: 30"   Gusts: 20mph
Location:  39.98°N, 85.7739°W
Report Text: KMQJ 311655Z AUTO 32014G17KT 10SM BKN019 BKN026 05/01 A3000 RMK AO1
Loading
Personal Weather Stations






























Interactive Weather Map
Tropical Storm Tracking
New forecast layout! Learn more

10-Day Weather Forecast

Advertisements
Track Severe Weather on mobile